createdAt,value
2017-12-11T00:01:24.619Z,8.20
2017-12-11T00:03:52.121Z,7.20
2017-12-11T00:06:19.593Z,8.00
2017-12-11T00:08:47.073Z,6.63
2017-12-11T00:11:14.593Z,7.70
2017-12-11T00:13:42.067Z,7.43
2017-12-11T00:16:16.321Z,10.20
2017-12-11T00:18:43.799Z,6.60
2017-12-11T00:21:11.321Z,6.03
2017-12-11T00:23:38.844Z,6.87
2017-12-11T00:26:06.335Z,6.20
2017-12-11T00:28:33.811Z,7.37
2017-12-11T00:31:01.455Z,8.70
2017-12-11T00:33:28.936Z,6.00
2017-12-11T00:35:56.418Z,5.93
2017-12-11T00:38:23.941Z,6.00
2017-12-11T00:40:51.427Z,7.00
2017-12-11T00:43:19.095Z,6.27
2017-12-11T00:45:46.623Z,5.87
2017-12-11T00:48:14.106Z,5.30
2017-12-11T00:50:41.586Z,5.63
2017-12-11T00:53:09.108Z,5.60
2017-12-11T00:55:36.579Z,5.60
2017-12-11T00:58:04.077Z,5.80
2017-12-11T01:00:31.590Z,5.93
2017-12-11T01:02:59.071Z,5.37
2017-12-11T01:05:26.543Z,4.97
2017-12-11T01:07:54.129Z,4.83
2017-12-11T01:10:21.595Z,4.80
2017-12-11T01:12:49.067Z,6.40
2017-12-11T01:15:16.570Z,5.50
2017-12-11T01:17:44.046Z,4.50
2017-12-11T01:20:11.637Z,5.40
2017-12-11T01:22:39.147Z,5.80
2017-12-11T01:25:06.626Z,5.70
2017-12-11T01:27:34.188Z,5.80
2017-12-11T01:30:01.688Z,5.60
2017-12-11T01:32:29.200Z,5.80
2017-12-11T01:34:56.766Z,6.60
2017-12-11T01:37:24.249Z,6.10
2017-12-11T01:39:51.727Z,5.40
2017-12-11T01:42:19.227Z,5.70
2017-12-11T01:44:46.797Z,6.60
2017-12-11T01:47:14.286Z,5.50
2017-12-11T01:49:41.817Z,4.50
2017-12-11T01:52:09.297Z,3.77
2017-12-11T01:54:36.771Z,5.07
2017-12-11T01:57:04.267Z,3.70
2017-12-11T01:59:31.740Z,4.10
2017-12-11T02:01:59.250Z,3.30
2017-12-11T02:04:26.831Z,4.43
2017-12-11T02:06:54.303Z,6.03
2017-12-11T02:09:21.811Z,3.70
2017-12-11T02:11:49.311Z,4.33
2017-12-11T02:14:16.886Z,5.13
2017-12-11T02:16:44.390Z,5.83
2017-12-11T02:19:11.899Z,5.40
2017-12-11T02:21:39.370Z,4.07
2017-12-11T02:24:07.202Z,5.10
2017-12-11T02:26:34.684Z,4.80
2017-12-11T02:29:02.245Z,4.40
2017-12-11T02:31:29.783Z,4.57
2017-12-11T02:33:57.287Z,4.33
2017-12-11T02:36:24.831Z,3.47
2017-12-11T02:38:52.356Z,3.77
2017-12-11T02:41:19.840Z,3.67
2017-12-11T02:43:47.320Z,3.57
2017-12-11T02:46:14.963Z,4.03
2017-12-11T02:48:42.645Z,3.80
2017-12-11T02:51:10.119Z,4.00
2017-12-11T02:53:37.644Z,3.30
2017-12-11T02:56:05.118Z,4.40
2017-12-11T02:58:32.594Z,4.47
2017-12-11T03:01:00.107Z,4.10
2017-12-11T03:03:27.580Z,3.27
2017-12-11T03:05:55.051Z,3.30
2017-12-11T03:08:22.564Z,3.80
2017-12-11T03:10:50.055Z,3.83
2017-12-11T03:13:17.542Z,3.67
2017-12-11T03:15:45.039Z,3.33
2017-12-11T03:18:12.513Z,3.13
2017-12-11T03:20:40.002Z,2.87
2017-12-11T03:23:07.497Z,3.20
2017-12-11T03:25:34.985Z,3.17
2017-12-11T03:28:02.509Z,3.40
2017-12-11T03:30:29.985Z,3.20
2017-12-11T03:32:57.462Z,3.17
2017-12-11T03:35:25.122Z,3.67
2017-12-11T03:37:52.612Z,2.60
2017-12-11T03:40:20.138Z,2.47
2017-12-11T03:42:47.882Z,2.70
2017-12-11T03:45:15.399Z,2.57
2017-12-11T03:47:43.095Z,2.80
2017-12-11T03:50:10.597Z,2.67
2017-12-11T03:52:38.079Z,2.70
2017-12-11T03:55:05.549Z,2.90
2017-12-11T03:57:33.062Z,2.50
2017-12-11T04:00:00.533Z,2.83
2017-12-11T04:02:28.067Z,3.30
2017-12-11T04:04:55.579Z,3.30
2017-12-11T04:07:23.049Z,2.93
2017-12-11T04:09:50.514Z,2.53
2017-12-11T04:12:18.008Z,2.57
2017-12-11T04:14:46.400Z,3.87
2017-12-11T04:17:13.931Z,2.87
2017-12-11T04:19:41.404Z,2.57
2017-12-11T04:22:08.875Z,2.70
2017-12-11T04:24:36.378Z,3.13
2017-12-11T04:27:03.855Z,2.70
2017-12-11T04:29:31.425Z,3.00
2017-12-11T04:31:58.928Z,3.30
2017-12-11T04:34:26.401Z,2.77
2017-12-11T04:36:53.865Z,3.23
2017-12-11T04:39:21.379Z,2.83
2017-12-11T04:41:48.860Z,3.10
2017-12-11T04:44:16.399Z,3.27
2017-12-11T04:46:43.909Z,2.60
2017-12-11T04:49:11.415Z,2.40
2017-12-11T04:51:38.887Z,2.83
2017-12-11T04:54:06.404Z,3.07
2017-12-11T04:56:33.885Z,3.27
2017-12-11T04:59:01.351Z,2.60
2017-12-11T05:01:28.864Z,2.90
2017-12-11T05:03:56.348Z,3.37
2017-12-11T05:06:23.820Z,3.33
2017-12-11T05:08:51.353Z,3.17
2017-12-11T05:11:18.926Z,3.07
2017-12-11T05:13:46.398Z,2.90
2017-12-11T05:16:13.924Z,3.30
2017-12-11T05:18:41.395Z,3.70
2017-12-11T05:21:08.943Z,3.37
2017-12-11T05:23:36.458Z,3.10
2017-12-11T05:26:03.924Z,3.73
2017-12-11T05:28:31.394Z,3.70
2017-12-11T05:30:58.896Z,3.90
2017-12-11T05:33:26.372Z,3.70
2017-12-11T05:35:53.847Z,3.90
2017-12-11T05:38:21.356Z,3.57
2017-12-11T05:40:48.947Z,4.50
2017-12-11T05:43:16.412Z,4.30
2017-12-11T05:45:43.910Z,4.13
2017-12-11T05:48:11.474Z,4.20
2017-12-11T05:50:38.950Z,4.87
2017-12-11T05:53:06.479Z,4.67
2017-12-11T05:55:33.963Z,5.00
2017-12-11T05:58:01.451Z,4.80
2017-12-11T06:00:28.970Z,5.23
2017-12-11T06:02:56.526Z,5.90
2017-12-11T06:05:24.095Z,12.80
2017-12-11T06:07:51.694Z,6.33
2017-12-11T06:10:19.167Z,7.50
2017-12-11T06:12:46.652Z,7.30
2017-12-11T06:15:14.159Z,7.10
2017-12-11T06:17:41.688Z,6.50
2017-12-11T06:20:09.160Z,6.97
2017-12-11T06:22:36.627Z,7.87
2017-12-11T06:25:04.138Z,7.40
2017-12-11T06:27:31.618Z,8.47
2017-12-11T06:29:59.197Z,7.50
2017-12-11T06:32:26.716Z,8.10
2017-12-11T06:34:54.297Z,8.47
2017-12-11T06:37:21.777Z,9.67
2017-12-11T06:39:49.301Z,10.00
2017-12-11T06:42:16.894Z,6.60
2017-12-11T06:44:44.383Z,6.90
2017-12-11T06:47:11.941Z,8.20
2017-12-11T06:49:39.447Z,6.13
2017-12-11T06:52:06.938Z,7.20
2017-12-11T06:54:34.455Z,8.03
2017-12-11T06:57:01.927Z,6.83
2017-12-11T06:59:29.397Z,8.70
2017-12-11T07:01:56.910Z,15.53
2017-12-11T07:04:24.395Z,10.40
2017-12-11T07:06:51.871Z,11.50
2017-12-11T07:09:19.402Z,8.83
2017-12-11T07:11:46.888Z,13.60
2017-12-11T07:14:14.381Z,11.53
2017-12-11T07:16:41.919Z,10.53
2017-12-11T07:19:09.397Z,10.23
2017-12-11T07:21:36.900Z,9.40
2017-12-11T07:24:04.429Z,15.20
2017-12-11T07:26:32.014Z,16.67
2017-12-11T07:28:59.505Z,15.70
2017-12-11T07:31:27.020Z,16.20
2017-12-11T07:33:54.500Z,13.47
2017-12-11T07:36:21.987Z,14.57
2017-12-11T07:38:49.503Z,10.93
2017-12-11T07:41:17.087Z,10.27
2017-12-11T07:43:44.559Z,9.47
2017-12-11T07:46:12.060Z,10.73
2017-12-11T07:48:39.664Z,13.10
2017-12-11T07:51:07.151Z,11.20
2017-12-11T07:53:34.635Z,14.23
2017-12-11T07:56:02.155Z,12.13
2017-12-11T07:58:29.931Z,14.63
2017-12-11T08:00:57.413Z,11.33
2017-12-11T08:03:24.944Z,11.20
2017-12-11T08:05:52.477Z,18.60
2017-12-11T08:08:19.979Z,10.90
2017-12-11T08:13:21.246Z,11.87
2017-12-11T08:15:48.751Z,11.50
2017-12-11T08:18:16.235Z,11.30
2017-12-11T08:20:43.747Z,12.00
2017-12-11T08:23:11.265Z,16.20
2017-12-11T08:25:38.744Z,12.93
2017-12-11T08:28:06.227Z,11.83
2017-12-11T08:30:33.748Z,13.67
2017-12-11T08:33:01.234Z,13.10
2017-12-11T08:35:28.720Z,12.20
2017-12-11T08:37:56.379Z,11.70
2017-12-11T08:40:23.861Z,11.10
2017-12-11T08:42:51.399Z,13.00
2017-12-11T08:45:18.926Z,11.67
2017-12-11T08:47:46.496Z,14.60
2017-12-11T08:50:14.052Z,13.00
2017-12-11T08:52:41.587Z,18.10
2017-12-11T08:55:09.075Z,14.57
2017-12-11T08:57:36.644Z,13.07
2017-12-11T09:00:04.216Z,14.40
2017-12-11T09:02:31.690Z,13.80
2017-12-11T09:04:59.171Z,13.53
2017-12-11T09:07:26.765Z,13.73
2017-12-11T09:09:54.243Z,13.70
2017-12-11T09:12:21.718Z,15.20
2017-12-11T09:14:49.337Z,14.50
2017-12-11T09:17:16.908Z,14.80
2017-12-11T09:19:44.470Z,14.73
2017-12-11T09:22:11.999Z,14.43
2017-12-11T09:24:39.478Z,13.63
2017-12-11T09:27:06.962Z,15.13
2017-12-11T09:29:34.476Z,14.17
2017-12-11T09:32:01.955Z,14.80
2017-12-11T09:34:29.435Z,14.67
2017-12-11T09:36:56.964Z,14.60
2017-12-11T09:39:24.447Z,15.07
2017-12-11T09:41:51.927Z,14.07
2017-12-11T09:44:19.459Z,16.13
2017-12-11T09:46:46.949Z,14.90
2017-12-11T09:49:14.466Z,14.53
2017-12-11T09:51:42.000Z,15.23
2017-12-11T09:54:09.671Z,15.60
2017-12-11T09:56:37.158Z,15.00
2017-12-11T09:59:04.684Z,13.93
2017-12-11T10:01:32.164Z,13.77
2017-12-11T10:03:59.703Z,14.60
2017-12-11T10:06:27.191Z,14.50
2017-12-11T10:08:54.671Z,15.27
2017-12-11T10:11:22.181Z,15.77
2017-12-11T10:13:49.662Z,15.20
2017-12-11T10:16:17.150Z,15.03
2017-12-11T10:18:44.668Z,15.60
2017-12-11T10:21:12.150Z,13.40
2017-12-11T10:23:39.667Z,13.37
2017-12-11T10:26:07.181Z,12.50
2017-12-11T10:28:34.662Z,12.60
2017-12-11T10:31:02.145Z,13.13
2017-12-11T10:33:29.657Z,12.43
2017-12-11T10:35:57.142Z,13.47
2017-12-11T10:38:24.626Z,13.10
2017-12-11T10:40:52.138Z,12.67
2017-12-11T10:43:19.618Z,13.73
2017-12-11T10:45:47.103Z,14.00
2017-12-11T10:48:14.630Z,13.50
2017-12-11T10:50:42.124Z,13.73
2017-12-11T10:53:09.607Z,13.93
2017-12-11T10:55:37.223Z,14.83
2017-12-11T10:58:04.790Z,12.97
2017-12-11T11:00:32.264Z,14.10
2017-12-11T11:02:59.784Z,14.17
2017-12-11T11:05:27.369Z,15.43
2017-12-11T11:07:54.847Z,13.93
2017-12-11T11:10:22.367Z,15.50
2017-12-11T11:12:49.857Z,16.03
2017-12-11T11:15:17.342Z,13.40
2017-12-11T11:17:44.951Z,15.53
2017-12-11T11:20:12.429Z,17.83
2017-12-11T11:22:39.908Z,16.53
2017-12-11T11:25:07.422Z,15.27
2017-12-11T11:27:34.911Z,16.67
2017-12-11T11:30:02.448Z,15.43
2017-12-11T11:32:29.967Z,16.57
2017-12-11T11:34:57.445Z,14.93
2017-12-11T11:37:24.974Z,17.70
2017-12-11T11:39:52.502Z,15.73
2017-12-11T11:42:19.979Z,22.47
2017-12-11T11:44:47.823Z,18.97
2017-12-11T11:47:15.348Z,14.60
2017-12-11T11:49:42.837Z,16.23
2017-12-11T11:52:10.323Z,14.97
2017-12-11T11:54:37.958Z,16.53
2017-12-11T11:57:05.439Z,14.73
2017-12-11T11:59:32.957Z,16.30
2017-12-11T12:02:00.466Z,18.67
2017-12-11T12:04:28.019Z,21.63
2017-12-11T12:06:55.522Z,19.93
2017-12-11T12:09:23.049Z,15.20
2017-12-11T12:11:50.527Z,15.87
2017-12-11T12:14:18.108Z,16.60
2017-12-11T12:16:45.663Z,15.17
2017-12-11T12:19:13.174Z,15.60
2017-12-11T12:21:40.686Z,14.30
2017-12-11T12:24:08.497Z,17.93
2017-12-11T12:26:36.020Z,20.73
2017-12-11T12:29:03.511Z,16.23
2017-12-11T12:31:30.990Z,15.43
2017-12-11T12:33:59.214Z,14.50
2017-12-11T12:36:26.697Z,15.20
2017-12-11T12:38:54.690Z,16.50
2017-12-11T12:41:22.302Z,14.70
2017-12-11T12:43:49.788Z,15.43
2017-12-11T12:46:17.274Z,14.60
2017-12-11T12:48:44.774Z,15.60
2017-12-11T12:51:12.259Z,13.70
2017-12-11T12:53:39.775Z,15.03
2017-12-11T12:56:07.335Z,16.50
2017-12-11T12:58:34.819Z,16.73
2017-12-11T13:01:02.449Z,16.43
2017-12-11T13:06:20.521Z,17.37
2017-12-11T13:08:47.995Z,16.20
2017-12-11T13:11:15.403Z,14.70
2017-12-11T13:13:42.831Z,15.63
2017-12-11T13:16:10.259Z,14.23
2017-12-11T13:18:37.672Z,18.20
2017-12-11T13:21:05.265Z,18.63
2017-12-11T13:23:32.692Z,15.70
2017-12-11T13:26:00.355Z,14.37
2017-12-11T13:28:27.765Z,14.87
2017-12-11T13:30:55.192Z,15.77
2017-12-11T13:33:22.751Z,14.70
2017-12-11T13:35:50.162Z,15.43
2017-12-11T13:38:17.589Z,14.70
2017-12-11T13:40:44.998Z,13.90
2017-12-11T13:43:12.408Z,15.43
2017-12-11T13:45:39.846Z,14.80
2017-12-11T13:48:07.268Z,18.80
2017-12-11T13:50:34.747Z,13.00
2017-12-11T13:53:02.215Z,14.40
2017-12-11T13:55:29.667Z,14.27
2017-12-11T13:57:57.088Z,15.97
2017-12-11T14:00:24.516Z,16.53
2017-12-11T14:02:51.943Z,15.33
2017-12-11T14:05:19.366Z,11.87
2017-12-11T14:07:46.832Z,10.23
2017-12-11T14:10:14.311Z,11.10
2017-12-11T14:12:41.723Z,8.40
2017-12-11T14:15:09.225Z,10.60
2017-12-11T14:17:36.627Z,10.10
2017-12-11T14:20:04.048Z,13.90
2017-12-11T14:22:31.614Z,10.90
2017-12-11T14:24:59.023Z,12.30
2017-12-11T14:27:31.387Z,14.50
2017-12-11T14:29:58.875Z,12.70
2017-12-11T14:32:26.295Z,14.73
2017-12-11T14:34:53.725Z,14.07
2017-12-11T14:37:21.195Z,15.60
2017-12-11T14:39:48.641Z,16.77
2017-12-11T14:42:16.071Z,14.50
2017-12-11T14:44:44.335Z,15.87
2017-12-11T14:47:11.866Z,17.27
2017-12-11T14:49:39.297Z,16.03
2017-12-11T14:52:06.703Z,14.70
2017-12-11T14:54:34.111Z,13.20
2017-12-11T14:57:01.765Z,14.70
2017-12-11T14:59:29.173Z,13.60
2017-12-11T15:01:56.746Z,13.27
2017-12-11T15:04:24.186Z,14.57
2017-12-11T15:06:51.671Z,14.30
2017-12-11T15:09:19.204Z,16.10
2017-12-11T15:11:46.613Z,13.80
2017-12-11T15:14:14.016Z,16.40
2017-12-11T15:16:41.443Z,15.97
2017-12-11T15:19:08.936Z,16.10
2017-12-11T15:21:36.355Z,15.57
2017-12-11T15:24:03.771Z,10.97
2017-12-11T15:26:31.200Z,14.83
2017-12-11T15:28:58.675Z,15.17
2017-12-11T15:31:26.082Z,14.43
2017-12-11T15:33:53.500Z,18.07
2017-12-11T15:36:20.932Z,14.10
2017-12-11T15:38:48.337Z,18.77
2017-12-11T15:41:15.747Z,16.60
2017-12-11T15:43:43.168Z,16.67
2017-12-11T15:46:10.648Z,18.00
2017-12-11T15:48:38.068Z,16.27
2017-12-11T15:51:05.496Z,18.43
2017-12-11T15:53:32.907Z,16.90
2017-12-11T15:56:00.325Z,15.00
2017-12-11T15:58:27.740Z,20.13
2017-12-11T16:00:55.212Z,19.00
2017-12-11T16:03:22.757Z,15.23
2017-12-11T16:05:50.167Z,15.80
2017-12-11T16:08:17.599Z,16.07
2017-12-11T16:10:45.016Z,16.63
2017-12-11T16:13:12.472Z,16.37
2017-12-11T16:15:39.884Z,17.73
2017-12-11T16:18:07.396Z,18.27
2017-12-11T16:20:34.852Z,17.27
2017-12-11T16:23:02.268Z,17.90
2017-12-11T16:25:29.963Z,17.87
2017-12-11T16:27:57.365Z,17.07
2017-12-11T16:30:24.767Z,17.70
2017-12-11T16:32:52.198Z,17.57
2017-12-11T16:35:19.710Z,17.80
2017-12-11T16:37:47.120Z,18.03
2017-12-11T16:40:14.710Z,16.53
2017-12-11T16:42:42.578Z,19.00
2017-12-11T16:45:10.446Z,19.10
2017-12-11T16:47:37.908Z,20.40
2017-12-11T16:50:05.557Z,20.70
2017-12-11T16:52:33.127Z,19.97
2017-12-11T16:55:00.674Z,19.47
2017-12-11T16:57:28.145Z,20.20
2017-12-11T16:59:55.601Z,21.40
2017-12-11T17:02:23.013Z,18.60
2017-12-11T17:04:50.605Z,19.30
2017-12-11T17:07:18.047Z,18.47
2017-12-11T17:09:45.519Z,18.30
2017-12-11T17:12:12.921Z,23.07
2017-12-11T17:14:40.343Z,17.37
2017-12-11T17:17:07.890Z,17.33
2017-12-11T17:19:35.295Z,16.17
2017-12-11T17:22:02.920Z,14.90
2017-12-11T17:24:30.324Z,15.63
2017-12-11T17:26:57.831Z,13.13
2017-12-11T17:29:25.278Z,14.60
2017-12-11T17:31:52.734Z,14.37
2017-12-11T17:34:20.135Z,16.93
2017-12-11T17:36:47.760Z,13.93
2017-12-11T17:39:16.008Z,15.77
2017-12-11T17:41:43.415Z,15.23
2017-12-11T17:44:10.955Z,15.37
2017-12-11T17:46:38.366Z,15.00
2017-12-11T17:49:05.777Z,16.33
2017-12-11T17:51:33.229Z,13.80
2017-12-11T17:54:00.770Z,14.90
2017-12-11T17:56:28.207Z,13.87
2017-12-11T17:58:55.914Z,13.17
2017-12-11T18:01:23.329Z,12.20
2017-12-11T18:03:50.767Z,12.40
2017-12-11T18:06:18.321Z,12.27
2017-12-11T18:08:45.799Z,12.30
2017-12-11T18:13:46.984Z,20.07
2017-12-11T18:16:14.415Z,15.20
2017-12-11T18:18:42.103Z,14.63
2017-12-11T18:21:09.568Z,13.40
2017-12-11T18:23:37.113Z,15.57
2017-12-11T18:26:04.580Z,14.87
2017-12-11T18:28:32.261Z,14.30
2017-12-11T18:30:59.805Z,13.40
2017-12-11T18:33:27.245Z,12.93
2017-12-11T18:35:54.643Z,15.50
2017-12-11T18:40:55.914Z,13.13
2017-12-11T18:43:23.342Z,15.30
2017-12-11T18:45:50.753Z,13.70
2017-12-11T18:48:18.157Z,14.67
2017-12-11T18:50:45.588Z,15.93
2017-12-11T18:53:13.055Z,14.63
2017-12-11T18:55:40.522Z,14.27
2017-12-11T18:58:08.061Z,13.13
2017-12-11T19:00:35.518Z,13.30
2017-12-11T19:03:02.920Z,13.60
2017-12-11T19:05:30.427Z,13.10
2017-12-11T19:07:57.835Z,13.43
2017-12-11T19:10:25.251Z,13.50
2017-12-11T19:12:52.700Z,12.83
2017-12-11T19:15:20.369Z,17.57
2017-12-11T19:17:47.799Z,12.93
2017-12-11T19:20:15.276Z,14.10
2017-12-11T19:22:42.735Z,14.03
2017-12-11T19:25:10.137Z,13.17
2017-12-11T19:27:37.577Z,12.23
2017-12-11T19:30:05.320Z,14.00
2017-12-11T19:32:32.736Z,13.00
2017-12-11T19:35:00.172Z,14.27
2017-12-11T19:37:27.578Z,13.73
2017-12-11T19:39:55.047Z,12.90
2017-12-11T19:42:22.471Z,13.93
2017-12-11T19:44:49.955Z,15.10
2017-12-11T19:47:17.363Z,14.20
2017-12-11T19:49:44.806Z,14.30
2017-12-11T19:52:12.208Z,13.47
2017-12-11T19:54:39.690Z,13.47
2017-12-11T19:57:07.112Z,12.63
2017-12-11T19:59:34.530Z,13.50
2017-12-11T20:02:02.041Z,13.30
2017-12-11T20:04:29.455Z,12.90
2017-12-11T20:06:56.914Z,10.40
2017-12-11T20:09:24.323Z,12.20
2017-12-11T20:11:51.779Z,13.77
2017-12-11T20:14:19.600Z,16.17
2017-12-11T20:16:47.125Z,10.87
2017-12-11T20:19:14.725Z,11.93
2017-12-11T20:21:42.143Z,14.40
2017-12-11T20:24:09.552Z,14.60
2017-12-11T20:26:37.044Z,14.00
2017-12-11T20:29:04.480Z,12.50
2017-12-11T20:31:31.885Z,12.50
2017-12-11T20:33:59.292Z,11.43
2017-12-11T20:36:26.762Z,12.83
2017-12-11T20:38:54.219Z,13.03
2017-12-11T20:41:21.631Z,11.80
2017-12-11T20:43:49.047Z,16.50
2017-12-11T20:46:16.457Z,10.67
2017-12-11T20:48:43.870Z,14.10
2017-12-11T20:51:11.299Z,11.60
2017-12-11T20:53:38.715Z,13.83
2017-12-11T20:56:06.120Z,12.40
2017-12-11T20:58:33.565Z,12.47
2017-12-11T21:01:01.011Z,11.30
2017-12-11T21:03:28.412Z,12.73
2017-12-11T21:05:55.850Z,12.20
2017-12-11T21:08:23.295Z,16.27
2017-12-11T21:10:50.699Z,13.97
2017-12-11T21:13:18.215Z,15.53
2017-12-11T21:15:45.645Z,17.27
2017-12-11T21:18:13.047Z,14.47
2017-12-11T21:20:40.489Z,13.20
2017-12-11T21:23:07.895Z,14.80
2017-12-11T21:25:35.343Z,17.47
2017-12-11T21:28:02.831Z,14.33
2017-12-11T21:30:30.239Z,12.97
2017-12-11T21:32:57.659Z,15.00
2017-12-11T21:35:25.097Z,12.43
2017-12-11T21:37:52.589Z,14.57
2017-12-11T21:40:19.980Z,18.30
2017-12-11T21:42:47.406Z,14.17
2017-12-11T21:45:14.813Z,17.53
2017-12-11T21:47:42.300Z,17.50
2017-12-11T21:50:09.753Z,36.70
2017-12-11T21:52:37.167Z,17.30
2017-12-11T21:55:04.597Z,37.87
2017-12-11T21:57:32.012Z,17.23
2017-12-11T21:59:59.432Z,31.30
2017-12-11T22:02:26.868Z,34.53
2017-12-11T22:04:54.271Z,20.50
2017-12-11T22:07:21.748Z,19.33
2017-12-11T22:09:49.199Z,15.20
2017-12-11T22:12:16.636Z,20.40
2017-12-11T22:14:44.053Z,35.27
2017-12-11T22:17:11.483Z,29.27
2017-12-11T22:19:38.891Z,13.43
2017-12-11T22:22:06.391Z,20.60
2017-12-11T22:24:33.939Z,17.77
2017-12-11T22:27:01.389Z,22.07
2017-12-11T22:29:28.846Z,29.90
2017-12-11T22:31:56.232Z,36.13
2017-12-11T22:34:23.676Z,54.53
2017-12-11T22:36:51.115Z,22.60
2017-12-11T22:39:18.584Z,14.50
2017-12-11T22:41:46.003Z,21.63
2017-12-11T22:44:13.499Z,29.80
2017-12-11T22:46:40.923Z,13.10
2017-12-11T22:49:08.327Z,17.47
2017-12-11T22:51:35.739Z,20.30
2017-12-11T22:54:03.166Z,15.00
2017-12-11T22:56:30.681Z,15.07
2017-12-11T22:58:58.137Z,12.53
2017-12-11T23:01:25.543Z,17.50
2017-12-11T23:03:52.964Z,16.87
2017-12-11T23:06:20.406Z,13.00
2017-12-11T23:08:47.824Z,14.43
2017-12-11T23:11:15.309Z,9.80
2017-12-11T23:13:42.744Z,10.23
2017-12-11T23:16:10.151Z,10.83
2017-12-11T23:18:37.559Z,11.77
2017-12-11T23:21:05.007Z,10.87
2017-12-11T23:23:32.415Z,20.53
2017-12-11T23:25:59.856Z,21.30
2017-12-11T23:28:27.295Z,15.90
2017-12-11T23:30:54.767Z,13.60
2017-12-11T23:33:22.215Z,10.20
2017-12-11T23:35:49.639Z,12.70
2017-12-11T23:38:17.040Z,11.87
2017-12-11T23:40:44.500Z,10.97
2017-12-11T23:43:11.942Z,9.60
2017-12-11T23:45:39.353Z,14.90
2017-12-11T23:48:06.763Z,11.80
2017-12-11T23:50:34.208Z,17.73
2017-12-11T23:53:01.608Z,11.20
2017-12-11T23:55:29.029Z,11.73
2017-12-11T23:57:56.472Z,15.60
